Home > Products > Valid Products > TAF

000
FTUS43 KIND 211400 AAA
TAFIND
TAF AMD
KIND 211417Z 2114/2218 13006KT 6SM HZ SCT250
     FM211600 14008KT P6SM SCT030
     FM220000 11007KT P6SM SCT030 BKN200
     FM220700 12006KT P6SM BKN080=



000
FTUS43 KIND 211100
TAFIND
TAF
KIND 211136Z 2112/2218 13006KT 6SM HZ FEW050
      TEMPO 2112/2114 5SM HZ
     FM211600 14008KT P6SM SCT030
     FM220000 11007KT P6SM SCT030 BKN200
     FM220700 12006KT P6SM BKN080=



000
FTUS43 KIND 211100
TAFLAF
TAF
KLAF 211136Z 2112/2212 14004KT 6SM HZ BKN035
     FM211800 16007KT P6SM SCT035
     FM220000 12005KT P6SM SCT040 BKN150
     FM220600 12005KT P6SM BKN080
      AMD LTD TO CLD VIS AND WIND TIL 211400=



000
FTUS43 KIND 210800 AAA
TAFIND
TAF AMD
KIND 210825Z 2108/2212 VRB03KT 6SM BR SCT028
      TEMPO 2109/2113 4SM BR
     FM211300 13003KT 5SM BR OVC030
     FM211600 13006KT 6SM BR SCT025 OVC050
     FM212100 13006KT P6SM BKN080=



000
FTUS43 KIND 210500
TAFIND
TAF
KIND 210521Z 2106/2212 VRB03KT 6SM BR OVC060
      TEMPO 2106/2110 5SM BR SCT028
     FM211000 12003KT 6SM BR OVC030
     FM211200 13003KT 5SM BR OVC030
     FM211600 13006KT 6SM BR SCT025 OVC050
     FM212100 13006KT P6SM BKN080=



000
FTUS43 KIND 210500
TAFLAF
TAF
KLAF 210521Z 2106/2206 13003KT P6SM OVC060
     FM210900 VRB03KT 5SM BR OVC030
     FM211500 15006KT 6SM BR SCT025 OVC050
     FM211800 14006KT P6SM OVC080
      AMD LTD TO CLD VIS AND WIND TIL 211400=



000
FTUS43 KIND 210200 AAA
TAFLAF
TAF AMD
KLAF 210215Z 2102/2124 VRB03KT P6SM OVC060
     FM210900 VRB03KT 5SM BR OVC030
     FM211600 14006KT P6SM SCT025 OVC050
      AMD LTD TO CLD VIS AND WIND 2102/2114=



000
FTUS43 KIND 210200 AAA
TAFIND
TAF AMD
KIND 210214Z 2102/2206 VRB03KT 6SM BR OVC060
     FM210900 13003KT 6SM BR OVC030
     FM211200 13003KT 5SM BR OVC030
     FM211600 13006KT P6SM SCT025 OVC050=



000
FTUS43 KIND 202300
TAFLAF
TAF
KLAF 202320Z 2100/2124 VRB03KT P6SM OVC030
      TEMPO 2100/2102 OVC070
     FM210300 VRB03KT 5SM BR OVC030
     FM211600 14006KT P6SM SCT025 OVC050
      AMD LTD TO CLD VIS AND WIND 2102/2114=



000
FTUS43 KIND 202300
TAFIND
TAF
KIND 202320Z 2100/2206 VRB03KT P6SM OVC025
     FM210900 13003KT 6SM BR OVC030
     FM211200 13003KT 5SM BR OVC030
     FM211600 13006KT P6SM SCT025 OVC050=



000
FTUS43 KIND 202200 AAA
TAFLAF
TAF AMD
KLAF 202229Z 2022/2118 VRB03KT P6SM OVC030
      TEMPO 2022/2101 OVC060
     FM210300 16003KT P6SM SCT030 BKN060=



000
FTUS43 KIND 202000 AAA
TAFIND
TAF AMD
KIND 202022Z 2020/2124 VRB03KT P6SM OVC025
     FM210400 13003KT P6SM SCT030 BKN060=



000
FTUS43 KIND 201700
TAFIND
TAF
KIND 201726Z 2018/2124 25003KT P6SM OVC029
     FM210400 13003KT P6SM SCT030 BKN060=



000
FTUS43 KIND 201700
TAFLAF
TAF
KLAF 201726Z 2018/2118 VRB03KT P6SM OVC028
     FM210300 16003KT P6SM SCT030 BKN060=



000
FTUS43 KIND 201400 AAA
TAFIND
TAF AMD
KIND 201421Z 2014/2118 VRB03KT 4SM BR OVC030
     FM201900 VRB04KT P6SM OVC028
     FM210400 13003KT P6SM SCT030 BKN060=



000
FTUS43 KIND 201100
TAFIND
TAF
KIND 201120Z 2012/2118 VRB03KT P6SM OVC030
     FM201900 VRB04KT P6SM OVC028
     FM210400 13003KT P6SM SCT030 BKN060=



000
FTUS43 KIND 201100
TAFLAF
TAF
KLAF 201120Z 2012/2112 00000KT 5SM BR OVC025
     FM201600 VRB03KT P6SM OVC028
     FM210300 16003KT P6SM SCT030 BKN060
      AMD LTD TO CLD VIS AND WIND TIL 201400=



000
FTUS43 KIND 200800 AAA
TAFIND
TAF AMD
KIND 200825Z 2008/2112 VRB03KT P6SM OVC028
     FM202000 VRB04KT P6SM BKN030 OVC060
     FM210200 12003KT P6SM OVC030=



000
FTUS43 KIND 200500
TAFIND
TAF
KIND 200524Z 2006/2112 VRB03KT P6SM OVC025
     FM202000 VRB04KT P6SM BKN030 OVC060
     FM210200 12003KT P6SM OVC030=



000
FTUS43 KIND 200500
TAFLAF
TAF
KLAF 200524Z 2006/2106 VRB03KT P6SM OVC025
     FM201600 15003KT P6SM OVC030
     FM210100 12002KT P6SM OVC025
      AMD LTD TO CLD VIS AND WIND TIL 201400=



000
FTUS43 KIND 200200 AAA
TAFIND
TAF AMD
KIND 200231Z 2003/2106 VRB03KT P6SM OVC025
     FM201500 10004KT P6SM BKN020 OVC060
     FM210300 08003KT P6SM OVC040=



000
FTUS43 KIND 192300
TAFIND
TAF
KIND 192338Z 2000/2106 VRB03KT P6SM OVC025
     FM201500 10004KT P6SM BKN020 OVC060
     FM210300 08003KT P6SM OVC040=



000
FTUS43 KIND 192300
TAFLAF
TAF
KLAF 192338Z 2000/2024 VRB03KT P6SM OVC025
     FM201600 15003KT P6SM BKN020 OVC060
      AMD LTD TO CLD VIS AND WIND 2002/2014=



000
FTUS43 KIND 192200 AAA
TAFLAF
TAF AMD
KLAF 192242Z 1923/2018 VRB04KT 6SM BR OVC020
     FM200500 00000KT P6SM BKN025=



000
FTUS43 KIND 192000 AAA
TAFIND
TAF AMD
KIND 192019Z 1920/2024 VRB03KT P6SM OVC025
     FM200500 07004KT P6SM BKN025=



000
FTUS43 KIND 191700
TAFLAF
TAF
KLAF 191720Z 1918/2018 VRB04KT P6SM OVC025
     FM200500 00000KT P6SM BKN025=



000
FTUS43 KIND 191700
TAFIND
TAF
KIND 191720Z 1918/2024 30003KT P6SM OVC025
     FM200500 07004KT P6SM BKN025=



000
FTUS43 KIND 191400 AAA
TAFIND
TAF AMD
KIND 191419Z 1914/2018 00000KT P6SM BKN025
     FM191600 VRB05KT P6SM BKN025
     FM200500 07004KT P6SM BKN025=



000
FTUS43 KIND 191100
TAFLAF
TAF
KLAF 191120Z 1912/2012 VRB03KT P6SM BKN030
     FM191600 VRB04KT P6SM BKN025
     FM200500 00000KT P6SM BKN025
      AMD LTD TO CLD VIS AND WIND TIL 191400=



000
FTUS43 KIND 191100
TAFIND
TAF
KIND 191120Z 1912/2018 36004KT P6SM BKN020
      TEMPO 1912/1914 SCT020
     FM191600 VRB05KT P6SM BKN025
     FM200500 07004KT P6SM BKN025=



000
FTUS43 KIND 190800 AAA
TAFLAF
TAF AMD
KLAF 190833Z 1909/2006 32003KT P6SM SCT020 BKN200
      TEMPO 1909/1911 BKN020
     FM191100 01002KT P6SM SCT025 BKN100
     FM191600 31003KT P6SM BKN025
     FM200300 00000KT P6SM SCT025 BKN100
      AMD LTD TO CLD VIS AND WIND TIL 191400=



000
FTUS43 KIND 190800 AAA
TAFIND
TAF AMD
KIND 190833Z 1909/2012 31004KT P6SM SCT020 BKN200
      TEMPO 1909/1911 BKN020
     FM191100 33004KT P6SM SCT025 BKN100
     FM191600 36006KT P6SM SCT025 BKN250
     FM200300 08003KT P6SM SCT025 BKN100=



000
FTUS43 KIND 190500
TAFLAF
TAF
KLAF 190520Z 1906/2006 32003KT P6SM SCT020 BKN200
      TEMPO 1906/1909 BKN020
     FM190900 01002KT P6SM SCT025 BKN100
     FM191600 31003KT P6SM BKN025
     FM200300 00000KT P6SM SCT025 BKN100
      AMD LTD TO CLD VIS AND WIND TIL 191400=



000
FTUS43 KIND 190500
TAFIND
TAF
KIND 190520Z 1906/2012 29004KT P6SM SCT020 BKN200
      TEMPO 1906/1908 BKN020
     FM191000 33004KT P6SM SCT025 BKN100
     FM191600 36006KT P6SM SCT025 BKN250
     FM200300 08003KT P6SM SCT025 BKN100=



000
FTUS43 KIND 190200 AAB
TAFIND
TAF AMD
KIND 190216Z 1902/2006 29005KT P6SM BKN020
      TEMPO 1902/1905 SCT020
     FM191000 33004KT P6SM SCT025 BKN100
     FM191600 36003KT P6SM SCT025 BKN250=



000
FTUS43 KIND 190100 AAA
TAFLAF
TAF AMD
KLAF 190102Z 1901/1924 00000KT P6SM BKN020
     FM190900 01002KT P6SM SCT025 BKN100
     FM191600 31003KT P6SM BKN025
      AMD LTD TO CLD VIS AND WIND 1902/1914=



000
FTUS43 KIND 190100 AAA
TAFIND
TAF AMD
KIND 190102Z 1901/2006 31005KT P6SM OVC015
     FM190300 VRB03KT P6SM BKN020
     FM191000 33004KT P6SM SCT025 BKN100
     FM191600 36003KT P6SM SCT025 BKN250=



000
FTUS43 KIND 182300
TAFLAF
TAF
KLAF 182320Z 1900/1924 33004KT P6SM BKN015 OVC060
     FM190200 32002KT P6SM BKN020
     FM190900 01002KT P6SM SCT025 BKN100
     FM191600 31003KT P6SM BKN025
      AMD LTD TO CLD VIS AND WIND 1902/1914=



000
FTUS43 KIND 182300
TAFIND
TAF
KIND 182320Z 1900/2006 VRB03KT P6SM SCT020 BKN060 OVC120
     FM190300 VRB03KT P6SM BKN020
     FM191000 33004KT P6SM SCT025 BKN100
     FM191600 36003KT P6SM SCT025 BKN250=



000
FTUS43 KIND 182000 AAA
TAFIND
TAF AMD
KIND 182027Z 1820/1924 31003KT P6SM OVC015
     FM190000 31003KT P6SM OVC030
     FM191200 02004KT P6SM SCT150=



000
FTUS43 KIND 181700
TAFIND
TAF
KIND 181720Z 1818/1924 31003KT P6SM OVC015
     FM190000 31003KT P6SM OVC030
     FM191200 02004KT P6SM SCT150=



000
FTUS43 KIND 181700
TAFLAF
TAF
KLAF 181720Z 1818/1918 31005KT P6SM BKN017 OVC100
     FM190000 32002KT P6SM OVC025
     FM190900 01002KT P6SM SCT150=



    US Dept of Commerce
    National Oceanic and Atmospheric Administration
    National Weather Service
    1325 East West Highway
    Silver Spring, MD 20910
    Page Author: NWS Internet Services Team
Disclaimer
Information Quality
Credits
Glossary
Privacy Policy
Freedom of Information Act (FOIA)
About Us
Career Opportunities